TAF Text Data
IDs:
Format:
Raw Decoded Include METAR

Data at: 0414 UTC 20 Sep 2020

KMRB 192322Z 2000/2024 00000KT P6SM SKC
  FM201400 04006KT P6SM SKC